createdAt,value
2018-11-04T00:00:18.471Z,17.95
2018-11-04T00:02:46.210Z,17.75
2018-11-04T00:05:13.556Z,20.12
2018-11-04T00:07:40.739Z,19.73
2018-11-04T00:10:08.471Z,18.30
2018-11-04T00:12:35.680Z,18.20
2018-11-04T00:15:02.895Z,17.62
2018-11-04T00:17:30.091Z,17.17
2018-11-04T00:19:57.266Z,18.42
2018-11-04T00:22:24.460Z,17.75
2018-11-04T00:24:51.664Z,17.65
2018-11-04T00:27:18.880Z,17.65
2018-11-04T00:29:46.073Z,17.82
2018-11-04T00:32:13.288Z,18.50
2018-11-04T00:34:40.482Z,16.42
2018-11-04T00:37:08.043Z,17.17
2018-11-04T00:39:35.235Z,18.32
2018-11-04T00:42:02.426Z,17.77
2018-11-04T00:44:29.685Z,17.35
2018-11-04T00:46:56.867Z,16.73
2018-11-04T00:49:24.064Z,16.80
2018-11-04T00:51:51.305Z,15.90
2018-11-04T00:54:18.511Z,16.80
2018-11-04T00:56:45.683Z,16.55
2018-11-04T00:59:12.909Z,16.12
2018-11-04T01:01:40.101Z,14.90
2018-11-04T01:04:07.302Z,17.27
2018-11-04T01:06:34.490Z,15.75
2018-11-04T01:09:01.696Z,15.40
2018-11-04T01:11:28.888Z,14.65
2018-11-04T01:13:56.064Z,14.15
2018-11-04T01:16:23.259Z,14.87
2018-11-04T01:18:50.468Z,15.10
2018-11-04T01:21:17.652Z,13.72
2018-11-04T01:23:44.850Z,13.62
2018-11-04T01:26:12.041Z,11.95
2018-11-04T01:28:39.232Z,11.95
2018-11-04T01:31:06.426Z,11.38
2018-11-04T01:33:33.671Z,11.35
2018-11-04T01:36:00.854Z,11.12
2018-11-04T01:38:28.097Z,10.75
2018-11-04T01:40:55.286Z,11.25
2018-11-04T01:43:22.488Z,11.03
2018-11-04T01:45:49.671Z,10.90
2018-11-04T01:48:16.864Z,10.10
2018-11-04T01:50:44.148Z,10.45
2018-11-04T01:53:11.354Z,10.25
2018-11-04T01:55:38.556Z,10.58
2018-11-04T01:58:05.760Z,9.60
2018-11-04T02:00:32.943Z,9.15
2018-11-04T02:03:00.137Z,11.05
2018-11-04T02:05:27.324Z,9.45
2018-11-04T02:07:54.502Z,9.95
2018-11-04T02:10:21.698Z,9.18
2018-11-04T02:12:48.867Z,9.45
2018-11-04T02:15:16.056Z,9.33
2018-11-04T02:17:43.241Z,9.60
2018-11-04T02:20:11.819Z,9.13
2018-11-04T02:22:39.361Z,9.70
2018-11-04T02:25:07.047Z,9.38
2018-11-04T02:27:34.227Z,9.70
2018-11-04T02:30:01.498Z,9.05
2018-11-04T02:32:28.783Z,8.88
2018-11-04T02:34:55.970Z,8.80
2018-11-04T02:37:23.155Z,10.13
2018-11-04T02:39:50.338Z,10.15
2018-11-04T02:42:17.532Z,10.48
2018-11-04T02:44:44.807Z,10.68
2018-11-04T02:47:12.003Z,12.15
2018-11-04T02:49:39.311Z,12.10
2018-11-04T02:52:07.382Z,12.25
2018-11-04T02:54:35.955Z,10.78
2018-11-04T02:57:03.174Z,10.93
2018-11-04T02:59:30.379Z,11.50
2018-11-04T03:01:57.635Z,12.98
2018-11-04T03:04:24.803Z,11.55
2018-11-04T03:06:52.014Z,11.83
2018-11-04T03:09:19.479Z,12.33
2018-11-04T03:11:46.672Z,12.47
2018-11-04T03:14:13.949Z,13.18
2018-11-04T03:16:41.379Z,11.57
2018-11-04T03:19:08.832Z,12.33
2018-11-04T03:21:36.621Z,11.65
2018-11-04T03:24:03.977Z,11.88
2018-11-04T03:26:31.268Z,12.23
2018-11-04T03:28:58.474Z,12.35
2018-11-04T03:31:25.665Z,12.07
2018-11-04T03:33:52.856Z,12.60
2018-11-04T03:36:20.063Z,13.15
2018-11-04T03:38:47.245Z,11.70
2018-11-04T03:41:14.439Z,14.23
2018-11-04T03:43:41.635Z,13.65
2018-11-04T03:46:08.876Z,13.08
2018-11-04T03:48:36.103Z,12.50
2018-11-04T03:51:03.291Z,12.88
2018-11-04T03:53:30.472Z,12.75
2018-11-04T03:55:57.665Z,13.50
2018-11-04T03:58:24.890Z,13.80
2018-11-04T04:00:52.081Z,12.43
2018-11-04T04:03:19.271Z,13.93
2018-11-04T04:05:46.458Z,13.70
2018-11-04T04:08:13.659Z,14.13
2018-11-04T04:10:40.845Z,13.05
2018-11-04T04:13:08.038Z,14.00
2018-11-04T04:15:35.244Z,12.88
2018-11-04T04:18:02.439Z,12.35
2018-11-04T04:20:29.640Z,12.88
2018-11-04T04:22:56.826Z,12.45
2018-11-04T04:25:24.020Z,13.30
2018-11-04T04:27:51.208Z,12.73
2018-11-04T04:30:18.396Z,13.53
2018-11-04T04:32:45.586Z,12.75
2018-11-04T04:35:12.765Z,13.13
2018-11-04T04:37:40.448Z,13.53
2018-11-04T04:40:07.856Z,13.45
2018-11-04T04:42:35.034Z,13.22
2018-11-04T04:45:02.231Z,13.22
2018-11-04T04:47:29.434Z,12.88
2018-11-04T04:49:56.616Z,12.58
2018-11-04T04:52:23.789Z,14.55
2018-11-04T04:54:50.996Z,13.15
2018-11-04T04:57:18.170Z,14.47
2018-11-04T04:59:45.363Z,12.78
2018-11-04T05:02:12.554Z,12.93
2018-11-04T05:04:39.736Z,14.63
2018-11-04T05:07:06.931Z,14.68
2018-11-04T05:09:34.119Z,15.03
2018-11-04T05:12:01.308Z,13.22
2018-11-04T05:14:28.502Z,14.15
2018-11-04T05:16:55.674Z,11.93
2018-11-04T05:19:22.882Z,13.68
2018-11-04T05:21:50.079Z,14.28
2018-11-04T05:24:17.265Z,13.15
2018-11-04T05:26:44.464Z,14.53
2018-11-04T05:29:11.696Z,13.88
2018-11-04T05:31:38.907Z,13.75
2018-11-04T05:34:06.088Z,15.28
2018-11-04T05:36:33.271Z,14.20
2018-11-04T05:39:00.471Z,13.50
2018-11-04T05:41:27.651Z,14.18
2018-11-04T05:43:54.852Z,16.82
2018-11-04T05:46:22.026Z,17.85
2018-11-04T05:48:49.228Z,13.45
2018-11-04T05:51:16.410Z,13.50
2018-11-04T05:53:44.432Z,12.80
2018-11-04T05:56:11.627Z,13.43
2018-11-04T05:58:38.907Z,17.92
2018-11-04T06:01:06.578Z,14.20
2018-11-04T06:03:33.769Z,15.43
2018-11-04T06:06:00.958Z,14.33
2018-11-04T06:08:28.154Z,13.68
2018-11-04T06:10:55.348Z,13.68
2018-11-04T06:13:22.530Z,14.00
2018-11-04T06:15:49.735Z,14.80
2018-11-04T06:18:16.915Z,13.30
2018-11-04T06:20:44.137Z,11.57
2018-11-04T06:23:11.342Z,16.17
2018-11-04T06:25:38.528Z,14.73
2018-11-04T06:28:05.744Z,12.75
2018-11-04T06:30:32.921Z,10.95
2018-11-04T06:33:00.135Z,13.80
2018-11-04T06:35:27.320Z,13.88
2018-11-04T06:37:54.511Z,12.70
2018-11-04T06:40:21.719Z,12.58
2018-11-04T06:42:48.894Z,13.05
2018-11-04T06:45:16.096Z,10.88
2018-11-04T06:47:43.380Z,11.40
2018-11-04T06:50:12.039Z,10.80
2018-11-04T06:52:39.232Z,10.20
2018-11-04T06:55:06.864Z,11.00
2018-11-04T06:57:34.078Z,9.95
2018-11-04T07:00:01.328Z,10.68
2018-11-04T07:02:28.465Z,9.90
2018-11-04T07:04:55.697Z,9.98
2018-11-04T07:07:22.899Z,10.65
2018-11-04T07:09:50.100Z,10.48
2018-11-04T07:12:17.283Z,9.95
2018-11-04T07:14:44.478Z,9.80
2018-11-04T07:17:11.664Z,8.55
2018-11-04T07:19:38.830Z,7.97
2018-11-04T07:22:06.033Z,11.05
2018-11-04T07:24:33.222Z,13.95
2018-11-04T07:27:00.407Z,9.33
2018-11-04T07:29:27.596Z,9.30
2018-11-04T07:31:54.778Z,8.45
2018-11-04T07:34:21.980Z,8.23
2018-11-04T07:36:49.247Z,8.28
2018-11-04T07:39:16.432Z,7.55
2018-11-04T07:41:44.678Z,8.93
2018-11-04T07:44:11.926Z,8.10
2018-11-04T07:46:39.076Z,7.65
2018-11-04T07:49:06.257Z,7.37
2018-11-04T07:51:33.509Z,6.70
2018-11-04T07:54:00.626Z,6.95
2018-11-04T07:56:27.810Z,9.15
2018-11-04T07:58:54.995Z,7.70
2018-11-04T08:01:22.189Z,8.28
2018-11-04T08:03:49.384Z,7.47
2018-11-04T08:06:16.566Z,7.85
2018-11-04T08:08:43.844Z,7.40
2018-11-04T08:11:11.036Z,8.15
2018-11-04T08:13:38.336Z,7.78
2018-11-04T08:16:05.443Z,7.50
2018-11-04T08:18:32.626Z,8.63
2018-11-04T08:20:59.826Z,8.18
2018-11-04T08:23:27.018Z,8.58
2018-11-04T08:25:54.203Z,7.30
2018-11-04T08:28:21.391Z,6.55
2018-11-04T08:30:48.573Z,7.65
2018-11-04T08:33:15.760Z,7.42
2018-11-04T08:35:42.951Z,7.15
2018-11-04T08:38:10.130Z,8.35
2018-11-04T08:40:37.313Z,7.05
2018-11-04T08:43:04.506Z,8.28
2018-11-04T08:45:31.764Z,8.03
2018-11-04T08:47:58.909Z,7.50
2018-11-04T08:50:26.096Z,7.40
2018-11-04T08:52:53.291Z,7.95
2018-11-04T08:55:20.499Z,7.15
2018-11-04T08:57:47.681Z,8.75
2018-11-04T09:00:15.652Z,7.97
2018-11-04T09:02:43.526Z,8.53
2018-11-04T09:05:10.897Z,7.58
2018-11-04T09:07:38.313Z,7.08
2018-11-04T09:10:06.823Z,8.30
2018-11-04T09:12:33.998Z,8.00
2018-11-04T09:15:01.202Z,8.20
2018-11-04T09:17:28.374Z,8.00
2018-11-04T09:19:55.570Z,8.10
2018-11-04T09:22:22.953Z,13.95
2018-11-04T09:24:50.309Z,10.82
2018-11-04T09:27:19.015Z,12.35
2018-11-04T09:29:46.215Z,11.20
2018-11-04T09:32:13.914Z,9.70
2018-11-04T09:34:41.536Z,9.90
2018-11-04T09:37:08.722Z,13.30
2018-11-04T09:39:36.851Z,9.18
2018-11-04T09:42:04.279Z,11.78
2018-11-04T09:44:31.613Z,10.95
2018-11-04T09:46:58.909Z,9.50
2018-11-04T09:49:26.223Z,9.30
2018-11-04T09:51:53.579Z,8.98
2018-11-04T09:54:20.759Z,9.73
2018-11-04T09:56:48.103Z,10.23
2018-11-04T09:59:15.287Z,10.05
2018-11-04T10:01:42.519Z,9.13
2018-11-04T10:04:09.754Z,9.83
2018-11-04T10:06:37.617Z,10.13
2018-11-04T10:09:06.415Z,8.73
2018-11-04T10:11:33.619Z,9.25
2018-11-04T10:14:00.915Z,10.50
2018-11-04T10:16:28.217Z,9.10
2018-11-04T10:18:55.374Z,9.75
2018-11-04T10:21:22.528Z,9.43
2018-11-04T10:23:49.702Z,9.78
2018-11-04T10:26:16.890Z,8.75
2018-11-04T10:28:44.070Z,8.83
2018-11-04T10:31:11.272Z,8.55
2018-11-04T10:33:38.449Z,8.15
2018-11-04T10:36:05.963Z,9.53
2018-11-04T10:38:33.177Z,8.40
2018-11-04T10:41:00.374Z,8.68
2018-11-04T10:43:27.562Z,8.33
2018-11-04T10:45:54.845Z,7.20
2018-11-04T10:48:22.068Z,8.80
2018-11-04T10:50:49.728Z,9.58
2018-11-04T10:53:17.571Z,10.48
2018-11-04T10:55:45.184Z,8.75
2018-11-04T10:58:12.346Z,9.10
2018-11-04T11:00:44.935Z,8.00
2018-11-04T11:03:12.173Z,8.70
2018-11-04T11:05:39.356Z,7.22
2018-11-04T11:08:06.560Z,11.03
2018-11-04T11:10:33.753Z,7.67
2018-11-04T11:13:00.934Z,6.22
2018-11-04T11:15:28.119Z,6.40
2018-11-04T11:17:55.286Z,6.90
2018-11-04T11:20:22.483Z,6.87
2018-11-04T11:22:49.765Z,6.97
2018-11-04T11:25:16.890Z,8.38
2018-11-04T11:27:44.227Z,8.55
2018-11-04T11:30:11.486Z,9.23
2018-11-04T11:32:38.631Z,8.80
2018-11-04T11:35:06.373Z,8.80
2018-11-04T11:37:33.685Z,7.55
2018-11-04T11:40:00.782Z,6.15
2018-11-04T11:42:28.414Z,9.43
2018-11-04T11:44:55.994Z,14.70
2018-11-04T11:47:23.159Z,7.78
2018-11-04T11:49:50.847Z,10.63
2018-11-04T11:52:18.084Z,10.13
2018-11-04T11:54:45.289Z,10.80
2018-11-04T11:57:12.504Z,13.20
2018-11-04T11:59:39.713Z,12.60
2018-11-04T12:02:06.970Z,10.90
2018-11-04T12:04:34.188Z,11.75
2018-11-04T12:07:01.413Z,12.35
2018-11-04T12:09:28.648Z,10.00
2018-11-04T12:11:55.853Z,9.45
2018-11-04T12:14:23.092Z,13.43
2018-11-04T12:16:50.308Z,12.33
2018-11-04T12:19:17.495Z,9.85
2018-11-04T12:21:44.706Z,13.85
2018-11-04T12:24:11.890Z,8.78
2018-11-04T12:26:39.107Z,9.53
2018-11-04T12:29:06.763Z,10.80
2018-11-04T12:31:33.958Z,11.08
2018-11-04T12:34:01.194Z,11.50
2018-11-04T12:36:28.402Z,16.02
2018-11-04T12:38:55.628Z,15.48
2018-11-04T12:41:22.850Z,11.38
2018-11-04T12:43:50.049Z,10.70
2018-11-04T12:46:17.258Z,11.08
2018-11-04T12:48:44.456Z,15.65
2018-11-04T12:51:11.660Z,11.57
2018-11-04T12:53:38.849Z,10.90
2018-11-04T12:56:06.072Z,11.53
2018-11-04T13:01:17.200Z,12.45
2018-11-04T13:03:44.545Z,11.00
2018-11-04T13:08:57.173Z,12.68
2018-11-04T13:11:25.163Z,14.40
2018-11-04T13:13:54.054Z,12.13
2018-11-04T13:16:21.895Z,11.90
2018-11-04T13:21:07.306Z,9.90
2018-11-04T13:23:47.229Z,10.72
2018-11-04T13:26:20.092Z,10.80
2018-11-04T13:29:01.953Z,14.18
2018-11-04T13:31:44.929Z,9.80
2018-11-04T13:34:24.230Z,10.58
2018-11-04T13:37:06.303Z,14.43
2018-11-04T13:39:45.279Z,17.25
2018-11-04T13:42:15.829Z,10.20
2018-11-04T13:44:45.422Z,9.48
2018-11-04T13:47:15.047Z,9.75
2018-11-04T13:49:45.199Z,9.70
2018-11-04T13:52:13.702Z,9.65
2018-11-04T13:54:53.861Z,9.90
2018-11-04T13:57:33.035Z,10.48
2018-11-04T14:00:13.914Z,11.35
2018-11-04T14:02:54.686Z,11.00
2018-11-04T14:05:35.298Z,11.55
2018-11-04T14:10:59.435Z,9.13
2018-11-04T14:13:31.065Z,9.40
2018-11-04T14:16:09.518Z,10.03
2018-11-04T14:18:48.385Z,10.00
2018-11-04T14:21:29.625Z,9.58
2018-11-04T14:24:08.573Z,10.00
2018-11-04T14:26:49.161Z,11.00
2018-11-04T14:29:30.925Z,9.55
2018-11-04T14:32:13.116Z,8.75
2018-11-04T14:34:52.758Z,10.40
2018-11-04T14:37:32.748Z,10.80
2018-11-04T14:40:11.017Z,12.30
2018-11-04T14:42:49.181Z,12.78
2018-11-04T14:45:29.326Z,10.55
2018-11-04T14:48:08.015Z,11.48
2018-11-04T14:50:45.459Z,9.98
2018-11-04T14:53:26.274Z,9.98
2018-11-04T14:56:05.299Z,11.80
2018-11-04T14:58:35.079Z,10.20
2018-11-04T15:01:15.644Z,9.95
2018-11-04T15:03:56.643Z,9.40
2018-11-04T15:06:35.432Z,8.60
2018-11-04T15:09:17.069Z,11.28
2018-11-04T15:11:55.714Z,9.95
2018-11-04T15:14:35.114Z,10.00
2018-11-04T15:17:15.050Z,9.88
2018-11-04T15:19:53.776Z,8.50
2018-11-04T15:22:34.053Z,11.03
2018-11-04T15:25:13.849Z,10.82
2018-11-04T15:27:54.392Z,8.68
2018-11-04T15:30:35.394Z,10.35
2018-11-04T15:33:16.520Z,9.35
2018-11-04T15:35:55.590Z,9.58
2018-11-04T15:38:34.504Z,9.65
2018-11-04T15:41:14.247Z,10.35
2018-11-04T15:43:51.460Z,9.50
2018-11-04T15:46:28.928Z,9.93
2018-11-04T15:49:04.088Z,9.55
2018-11-04T15:51:43.740Z,8.05
2018-11-04T15:54:18.897Z,9.75
2018-11-04T15:56:56.955Z,10.95
2018-11-04T15:59:36.644Z,9.75
2018-11-04T16:02:19.478Z,8.30
2018-11-04T16:05:02.339Z,14.33
2018-11-04T16:07:42.340Z,9.40
2018-11-04T16:10:22.154Z,13.05
2018-11-04T16:13:01.750Z,9.95
2018-11-04T16:15:41.515Z,13.45
2018-11-04T16:18:21.033Z,10.70
2018-11-04T16:21:01.323Z,8.38
2018-11-04T16:23:41.214Z,9.10
2018-11-04T16:29:01.976Z,9.73
2018-11-04T16:31:43.018Z,10.68
2018-11-04T16:34:22.056Z,13.20
2018-11-04T16:37:02.348Z,10.80
2018-11-04T16:39:41.363Z,12.53
2018-11-04T16:42:20.876Z,14.53
2018-11-04T16:45:01.421Z,18.45
2018-11-04T16:47:40.238Z,22.52
2018-11-04T16:50:20.154Z,18.60
2018-11-04T16:52:58.397Z,24.30
2018-11-04T16:55:40.538Z,18.80
2018-11-04T16:58:20.155Z,24.55
2018-11-04T17:00:59.701Z,28.52
2018-11-04T17:03:38.909Z,27.58
2018-11-04T17:06:21.058Z,28.27
2018-11-04T17:08:59.644Z,19.60
2018-11-04T17:11:39.537Z,14.93
2018-11-04T17:14:17.166Z,17.35
2018-11-04T17:16:51.716Z,17.12
2018-11-04T17:19:31.987Z,13.88
2018-11-04T17:22:07.215Z,10.85
2018-11-04T17:24:46.643Z,13.32
2018-11-04T17:27:21.135Z,12.50
2018-11-04T17:30:00.502Z,9.08
2018-11-04T17:32:41.319Z,10.53
2018-11-04T17:35:21.884Z,11.70
2018-11-04T17:38:00.404Z,10.25
2018-11-04T17:40:39.995Z,9.33
2018-11-04T17:43:20.563Z,10.40
2018-11-04T17:45:58.362Z,11.80
2018-11-04T17:48:38.919Z,14.28
2018-11-04T17:51:20.408Z,10.68
2018-11-04T17:54:00.073Z,10.82
2018-11-04T17:56:41.621Z,11.35
2018-11-04T17:59:21.387Z,12.10
2018-11-04T18:02:00.102Z,11.80
2018-11-04T18:04:40.516Z,12.35
2018-11-04T18:07:20.110Z,12.18
2018-11-04T18:09:58.999Z,10.88
2018-11-04T18:12:37.642Z,11.55
2018-11-04T18:15:18.207Z,10.70
2018-11-04T18:17:58.153Z,11.73
2018-11-04T18:20:36.641Z,11.30
2018-11-04T18:23:16.643Z,11.18
2018-11-04T18:25:56.425Z,11.48
2018-11-04T18:28:36.593Z,14.43
2018-11-04T18:31:18.183Z,13.05
2018-11-04T18:33:58.325Z,11.65
2018-11-04T18:36:39.372Z,10.00
2018-11-04T18:39:16.641Z,12.18
2018-11-04T18:41:56.475Z,13.70
2018-11-04T18:44:34.826Z,13.05
2018-11-04T18:47:15.056Z,13.18
2018-11-04T18:49:54.196Z,12.70
2018-11-04T18:52:33.976Z,11.97
2018-11-04T18:55:16.038Z,13.50
2018-11-04T18:57:54.274Z,12.03
2018-11-04T19:00:35.689Z,10.70
2018-11-04T19:03:14.079Z,13.43
2018-11-04T19:05:54.322Z,12.07
2018-11-04T19:08:32.318Z,12.33
2018-11-04T19:11:09.095Z,13.00
2018-11-04T19:13:48.022Z,15.55
2018-11-04T19:16:24.590Z,14.40
2018-11-04T19:19:02.733Z,14.10
2018-11-04T19:21:42.273Z,13.35
2018-11-04T19:24:21.514Z,14.98
2018-11-04T19:26:56.641Z,16.02
2018-11-04T19:29:36.398Z,15.30
2018-11-04T19:32:16.489Z,13.05
2018-11-04T19:34:55.480Z,13.28
2018-11-04T19:37:39.198Z,16.40
2018-11-04T19:40:19.568Z,15.58
2018-11-04T19:42:58.847Z,14.50
2018-11-04T19:45:38.410Z,14.78
2018-11-04T19:48:17.590Z,13.43
2018-11-04T19:50:56.664Z,14.58
2018-11-04T19:53:36.642Z,12.98
2018-11-04T19:56:16.641Z,14.07
2018-11-04T19:58:56.364Z,12.23
2018-11-04T20:01:35.715Z,14.98
2018-11-04T20:04:12.359Z,14.05
2018-11-04T20:06:53.078Z,15.70
2018-11-04T20:09:33.169Z,14.05
2018-11-04T20:12:16.636Z,13.78
2018-11-04T20:14:55.013Z,15.55
2018-11-04T20:17:34.590Z,15.00
2018-11-04T20:20:20.568Z,13.18
2018-11-04T20:23:02.277Z,12.68
2018-11-04T20:25:43.190Z,11.65
2018-11-04T20:28:23.109Z,15.20
2018-11-04T20:31:02.401Z,13.15
2018-11-04T20:33:43.977Z,14.95
2018-11-04T20:36:21.983Z,16.70
2018-11-04T20:39:05.151Z,15.95
2018-11-04T20:41:45.765Z,16.10
2018-11-04T20:44:26.641Z,21.33
2018-11-04T20:47:08.326Z,19.17
2018-11-04T20:49:46.272Z,17.70
2018-11-04T20:52:26.643Z,20.00
2018-11-04T20:55:03.474Z,22.35
2018-11-04T20:57:46.680Z,19.37
2018-11-04T21:00:26.133Z,19.35
2018-11-04T21:03:08.125Z,18.05
2018-11-04T21:05:48.041Z,17.00
2018-11-04T21:08:26.659Z,16.25
2018-11-04T21:11:05.746Z,23.77
2018-11-04T21:13:47.812Z,20.23
2018-11-04T21:16:27.886Z,15.40
2018-11-04T21:19:08.447Z,13.28
2018-11-04T21:21:48.893Z,13.70
2018-11-04T21:24:28.478Z,14.40
2018-11-04T21:27:06.645Z,15.00
2018-11-04T21:29:46.151Z,15.68
2018-11-04T21:32:25.904Z,17.07
2018-11-04T21:35:04.371Z,17.52
2018-11-04T21:37:46.706Z,12.50
2018-11-04T21:40:26.528Z,12.98
2018-11-04T21:43:06.037Z,16.40
2018-11-04T21:45:44.189Z,18.00
2018-11-04T21:48:25.854Z,19.23
2018-11-04T21:51:06.540Z,16.85
2018-11-04T21:53:46.642Z,14.93
2018-11-04T21:56:25.679Z,14.50
2018-11-04T21:59:06.272Z,16.30
2018-11-04T22:01:46.260Z,13.78
2018-11-04T22:04:25.687Z,13.20
2018-11-04T22:07:04.769Z,14.28
2018-11-04T22:09:43.836Z,13.43
2018-11-04T22:12:24.051Z,13.72
2018-11-04T22:15:03.822Z,13.72
2018-11-04T22:17:43.858Z,13.80
2018-11-04T22:20:22.801Z,14.13
2018-11-04T22:23:03.174Z,13.70
2018-11-04T22:25:43.787Z,14.10
2018-11-04T22:28:18.330Z,14.90
2018-11-04T22:30:57.594Z,14.07
2018-11-04T22:33:36.238Z,14.23
2018-11-04T22:36:16.443Z,14.75
2018-11-04T22:38:56.346Z,14.80
2018-11-04T22:41:35.786Z,16.10
2018-11-04T22:44:14.604Z,15.40
2018-11-04T22:46:55.138Z,14.28
2018-11-04T22:49:35.124Z,15.08
2018-11-04T22:52:16.625Z,14.33
2018-11-04T22:54:54.920Z,14.10
2018-11-04T22:57:34.912Z,14.10
2018-11-04T23:00:14.900Z,15.20
2018-11-04T23:02:56.642Z,14.95
2018-11-04T23:05:36.540Z,13.65
2018-11-04T23:08:06.435Z,15.23
2018-11-04T23:10:45.242Z,14.75
2018-11-04T23:13:26.133Z,13.93
2018-11-04T23:16:02.761Z,13.78
2018-11-04T23:18:41.453Z,13.40
2018-11-04T23:21:24.182Z,15.15
2018-11-04T23:24:04.526Z,14.98
2018-11-04T23:26:45.226Z,14.40
2018-11-04T23:29:24.782Z,14.28
2018-11-04T23:32:05.540Z,14.20
2018-11-04T23:34:45.667Z,14.38
2018-11-04T23:37:25.683Z,14.30
2018-11-04T23:40:06.643Z,14.40
2018-11-04T23:42:45.842Z,12.98
2018-11-04T23:45:25.906Z,14.23
2018-11-04T23:48:06.642Z,15.53
2018-11-04T23:50:43.510Z,14.30
2018-11-04T23:53:22.277Z,14.05
2018-11-04T23:55:59.498Z,14.23
2018-11-04T23:58:38.593Z,14.40
